Terminal Aerodrome Forecast
Issued by NWS Twin Cities, MN

Home | Current Version | Previous Version | Graphics & Text | Print | Product List | Glossary On
Versions: 1 2 3 4 5 6 7 8 9 10 11 12 13 14 15 16 17 18 19 20 21 22 23 24 25 26 27 28 29
071
FTUS43 KMPX 272339
TAFMSP
TAF
KMSP 272339Z 2800/2906 10012KT 6SM -SHRA SCT040 OVC060
     FM280400 07012KT P6SM OVC050
     FM280800 06012KT 5SM -RA BR OVC040
     FM281500 06010KT P6SM -SHRA OVC050
     FM282000 05008KT P6SM OVC070=

USA.gov is the U.S. government's official web portal to all federal, state and local government web resources and services.